Time;durP1;ratioP1;P1;durP2;ratioP2;P2;SDS_P1;SDS_P2;PMS_P1;PMS_P2;Temp;Humidity;BMP_temperature;BMP_pressure;BME280_temperature;BME280_humidity;BME280_pressure;Samples;Min_cycle;Max_cycle;Signal;HPM_P1;HPM_P2
2021/05/20 00:00:49;;;;;;;1.92;1.50;;;21.20;68.00;;;;;;4989451;28;20073;-80
2021/05/20 00:03:17;;;;;;;3.97;1.63;;;21.40;67.40;;;;;;5000356;28;20030;-79
2021/05/20 00:05:44;;;;;;;4.00;1.20;;;21.40;67.90;;;;;;4998998;28;20057;-77
2021/05/20 00:08:11;;;;;;;4.32;1.55;;;21.90;67.30;;;;;;5003494;28;20037;-73
2021/05/20 00:10:39;;;;;;;3.22;1.73;;;22.10;66.00;;;;;;5003011;28;20030;-75
2021/05/20 00:13:06;;;;;;;2.95;1.48;;;22.10;64.90;;;;;;5005045;28;20032;-77
2021/05/20 00:15:34;;;;;;;1.98;1.30;;;22.30;64.20;;;;;;4991357;28;20042;-77
2021/05/20 00:18:01;;;;;;;3.22;1.45;;;22.80;63.10;;;;;;4993718;28;20018;-74
2021/05/20 00:20:28;;;;;;;5.03;1.75;;;22.70;62.90;;;;;;4992182;28;20108;-74
2021/05/20 00:22:56;;;;;;;2.72;1.50;;;23.20;61.90;;;;;;4998384;28;20026;-73
2021/05/20 00:25:24;;;;;;;4.40;1.55;;;23.60;62.10;;;;;;4992370;28;20583;-77
2021/05/20 00:27:51;;;;;;;3.45;2.35;;;23.60;61.10;;;;;;4999887;28;20072;-77
2021/05/20 00:30:19;;;;;;;3.97;1.55;;;23.80;60.50;;;;;;4987967;28;20050;-74
2021/05/20 00:32:46;;;;;;;4.18;1.10;;;23.80;60.20;;;;;;4996325;28;20084;-74
2021/05/20 00:35:14;;;;;;;3.42;1.48;;;24.50;60.00;;;;;;4995480;28;20037;-75
2021/05/20 00:37:41;;;;;;;3.38;1.48;;;24.80;57.20;;;;;;4990802;28;20034;-77
2021/05/20 00:40:09;;;;;;;4.72;1.55;;;24.90;57.00;;;;;;4994642;28;20026;-78
2021/05/20 00:42:36;;;;;;;4.30;1.33;;;24.90;57.70;;;;;;4991943;28;20041;-76
2021/05/20 00:45:07;;;;;;;4.30;1.80;;;25.00;56.70;;;;;;4993512;28;20042;-76
2021/05/20 00:47:35;;;;;;;2.47;1.60;;;25.10;55.70;;;;;;4995078;28;20037;-76
2021/05/20 00:50:06;;;;;;;3.33;1.50;;;24.90;58.80;;;;;;4990113;28;20042;-76
2021/05/20 00:52:34;;;;;;;2.45;1.60;;;25.20;56.00;;;;;;4988585;28;20065;-77
2021/05/20 00:55:04;;;;;;;7.00;1.65;;;25.50;54.00;;;;;;4998264;28;21412;-77
2021/05/20 00:57:35;;;;;;;5.55;1.55;;;25.30;54.50;;;;;;4994724;28;21377;-75
2021/05/20 01:00:10;;;;;;;6.82;1.75;;;25.70;54.70;;;;;;4993949;28;20064;-76
2021/05/20 01:02:39;;;;;;;5.40;1.75;;;26.00;54.90;;;;;;4996779;28;20053;-77
2021/05/20 01:05:12;;;;;;;3.28;1.38;;;25.80;53.70;;;;;;4989200;28;20055;-78
2021/05/20 01:07:40;;;;;;;4.20;2.13;;;25.60;54.00;;;;;;4990969;28;20053;-76
2021/05/20 01:10:08;;;;;;;3.80;1.48;;;26.00;53.30;;;;;;4999053;28;20030;-77
2021/05/20 01:12:36;;;;;;;3.67;1.25;;;26.20;53.60;;;;;;4999289;28;20049;-77
2021/05/20 01:15:03;;;;;;;7.88;1.23;;;26.60;53.10;;;;;;4989303;28;20049;-76
2021/05/20 01:17:31;;;;;;;5.05;1.40;;;26.50;52.00;;;;;;4992626;28;20026;-75
2021/05/20 01:19:58;;;;;;;5.28;1.58;;;26.60;51.60;;;;;;4990755;28;20034;-78
2021/05/20 01:22:27;;;;;;;3.35;1.17;;;26.80;51.10;;;;;;4992545;28;20960;-77
2021/05/20 01:24:55;;;;;;;5.30;1.15;;;27.00;48.70;;;;;;4994317;28;20030;-76
2021/05/20 01:27:23;;;;;;;1.98;1.23;;;27.10;53.90;;;;;;4994988;28;20026;-78
2021/05/20 01:29:51;;;;;;;3.42;1.45;;;27.40;51.20;;;;;;4990892;28;20980;-77
2021/05/20 01:32:18;;;;;;;3.35;1.42;;;27.50;53.40;;;;;;4991574;28;20453;-76
2021/05/20 01:34:59;;;;;;;3.92;1.38;;;27.90;49.70;;;;;;4990636;28;20049;-76
2021/05/20 01:37:26;;;;;;;6.00;2.38;;;28.20;48.30;;;;;;4994875;28;20038;-76
2021/05/20 01:39:54;;;;;;;6.70;1.58;;;28.30;49.50;;;;;;4997274;28;20022;-76
2021/05/20 01:42:22;;;;;;;5.15;1.10;;;28.20;48.70;;;;;;5004262;28;20042;-76
2021/05/20 01:44:50;;;;;;;3.42;1.00;;;28.20;48.00;;;;;;4989948;28;20173;-77
2021/05/20 01:47:18;;;;;;;5.85;1.15;;;28.20;46.70;;;;;;4998619;28;20456;-76
2021/05/20 01:49:55;;;;;;;3.80;1.33;;;28.20;48.00;;;;;;4995440;28;20697;-75
2021/05/20 01:52:22;;;;;;;5.40;1.58;;;28.20;46.20;;;;;;4982395;28;20040;-77
2021/05/20 01:54:49;;;;;;;6.90;1.45;;;27.30;44.90;;;;;;4990421;28;20027;-77
2021/05/20 01:57:17;;;;;;;5.45;1.08;;;27.20;47.10;;;;;;4995230;28;20366;-76
2021/05/20 01:59:44;;;;;;;6.47;1.65;;;27.60;49.60;;;;;;4992795;28;20033;-79
2021/05/20 02:02:12;;;;;;;2.00;0.93;;;27.70;46.40;;;;;;4995931;28;20443;-74
2021/05/20 02:04:39;;;;;;;3.38;1.15;;;27.80;45.90;;;;;;4999808;28;20038;-74
2021/05/20 02:07:07;;;;;;;1.92;0.75;;;27.60;46.30;;;;;;4987144;28;20373;-74
2021/05/20 02:09:34;;;;;;;2.65;0.80;;;27.30;46.70;;;;;;4989958;28;20180;-75
2021/05/20 02:12:01;;;;;;;2.35;1.35;;;27.30;48.20;;;;;;4991261;28;20481;-77
2021/05/20 02:14:32;;;;;;;2.13;0.90;;;27.70;46.70;;;;;;4993533;28;20635;-77
2021/05/20 02:17:01;;;;;;;2.25;0.82;;;27.30;43.40;;;;;;4997147;28;20070;-76
2021/05/20 02:19:28;;;;;;;2.95;0.90;;;27.70;45.50;;;;;;4996204;28;20504;-77
2021/05/20 02:21:55;;;;;;;3.22;0.93;;;27.90;48.20;;;;;;4995424;28;20536;-76
2021/05/20 02:24:24;;;;;;;2.72;0.75;;;28.30;47.60;;;;;;4994438;28;20021;-81
2021/05/20 02:26:51;;;;;;;2.90;1.10;;;28.40;44.50;;;;;;4990442;28;20500;-78
2021/05/20 02:29:19;;;;;;;2.40;1.95;;;27.60;43.70;;;;;;4992642;28;20066;-80
2021/05/20 02:31:46;;;;;;;2.45;0.90;;;27.60;45.80;;;;;;4993289;28;20396;-78
2021/05/20 02:34:14;;;;;;;4.90;1.02;;;27.60;44.00;;;;;;4996448;28;20084;-80
2021/05/20 02:36:44;;;;;;;5.40;1.00;;;27.30;44.70;;;;;;4987976;28;20113;-75
2021/05/20 02:39:12;;;;;;;1.83;1.00;;;26.50;47.40;;;;;;4993238;28;20034;-79
2021/05/20 02:41:39;;;;;;;3.17;1.25;;;25.60;46.60;;;;;;4992373;28;20110;-75
2021/05/20 02:44:10;;;;;;;1.67;0.73;;;25.00;49.00;;;;;;4992357;28;20068;-73
2021/05/20 02:46:37;;;;;;;4.50;1.02;;;24.90;52.00;;;;;;4994234;28;20580;-74
2021/05/20 02:49:05;;;;;;;2.97;1.35;;;25.60;50.10;;;;;;4992224;28;20603;-75
2021/05/20 02:51:32;;;;;;;2.25;0.85;;;26.40;49.70;;;;;;4990322;28;20057;-77
2021/05/20 02:54:00;;;;;;;1.58;0.70;;;27.10;50.00;;;;;;4992555;28;20120;-76
2021/05/20 02:56:27;;;;;;;2.17;0.52;;;26.50;45.40;;;;;;4991277;28;20057;-77
2021/05/20 02:58:54;;;;;;;1.17;0.60;;;27.00;47.50;;;;;;4990913;28;20081;-76
2021/05/20 03:01:23;;;;;;;1.13;0.40;;;27.30;45.50;;;;;;4989976;28;20108;-75
2021/05/20 03:03:51;;;;;;;3.83;0.80;;;27.50;46.60;;;;;;4995423;28;20385;-76
2021/05/20 03:06:18;;;;;;;1.13;0.50;;;27.60;47.60;;;;;;4992316;28;20026;-77
2021/05/20 03:08:46;;;;;;;0.68;0.50;;;27.80;48.70;;;;;;4990693;28;20050;-77
2021/05/20 03:11:13;;;;;;;1.38;0.70;;;27.90;47.20;;;;;;4988448;28;20030;-74
2021/05/20 03:13:41;;;;;;;1.40;0.60;;;27.90;47.80;;;;;;4987894;28;21034;-75
2021/05/20 03:16:08;;;;;;;2.55;0.57;;;27.80;48.20;;;;;;4990000;28;20039;-74
2021/05/20 03:18:35;;;;;;;1.10;0.55;;;27.80;46.20;;;;;;4992895;28;20488;-74
2021/05/20 03:21:03;;;;;;;1.00;0.50;;;27.70;46.80;;;;;;4991247;28;20034;-76
2021/05/20 03:23:30;;;;;;;3.17;0.60;;;27.50;45.40;;;;;;4995127;28;20497;-76
2021/05/20 03:25:58;;;;;;;0.50;0.40;;;27.20;45.00;;;;;;4987935;28;20037;-80
2021/05/20 03:28:25;;;;;;;1.35;0.73;;;26.60;46.70;;;;;;4984545;28;20424;-75
2021/05/20 03:30:52;;;;;;;3.15;0.50;;;26.50;48.00;;;;;;4991868;28;20026;-76
2021/05/20 03:33:20;;;;;;;0.60;0.40;;;26.00;47.80;;;;;;4986789;28;20058;-76
2021/05/20 03:35:48;;;;;;;0.65;0.40;;;25.80;54.00;;;;;;4989082;28;20104;-77
2021/05/20 03:38:15;;;;;;;2.83;0.63;;;25.30;52.80;;;;;;4993544;28;20387;-76
2021/05/20 03:40:43;;;;;;;1.20;0.43;;;24.90;49.20;;;;;;4994514;28;20038;-76
2021/05/20 03:43:10;;;;;;;1.95;0.50;;;24.30;50.40;;;;;;4996327;28;20533;-78
2021/05/20 03:45:37;;;;;;;0.82;0.40;;;23.80;51.60;;;;;;4999470;28;20105;-77
2021/05/20 03:48:05;;;;;;;1.38;0.38;;;23.70;53.50;;;;;;5002150;28;20029;-77
2021/05/20 03:50:33;;;;;;;0.73;0.40;;;23.60;53.30;;;;;;4995627;28;20587;-77
2021/05/20 03:53:00;;;;;;;1.20;0.30;;;23.30;52.30;;;;;;4997897;28;20429;-75
2021/05/20 03:55:28;;;;;;;1.52;0.50;;;23.20;55.10;;;;;;4995983;28;20026;-76
2021/05/20 03:57:55;;;;;;;1.95;0.70;;;23.20;55.90;;;;;;4990546;28;20054;-77
2021/05/20 04:00:23;;;;;;;1.33;0.45;;;23.10;56.50;;;;;;4982123;28;20057;-75
2021/05/20 04:02:51;;;;;;;1.33;0.55;;;23.10;55.00;;;;;;4997699;28;20926;-74
2021/05/20 04:05:18;;;;;;;4.10;0.55;;;23.00;52.90;;;;;;4995743;28;20121;-76
2021/05/20 04:07:46;;;;;;;0.70;0.30;;;22.70;52.30;;;;;;4999486;28;20018;-75
2021/05/20 04:10:14;;;;;;;1.13;0.47;;;22.60;51.80;;;;;;4994377;28;20471;-75
2021/05/20 04:12:41;;;;;;;1.23;0.60;;;22.60;52.90;;;;;;4995970;28;20018;-75
2021/05/20 04:15:09;;;;;;;0.90;0.38;;;22.50;52.90;;;;;;4993632;28;20057;-76
2021/05/20 04:17:36;;;;;;;0.90;0.30;;;22.40;51.60;;;;;;5002941;28;20050;-74
2021/05/20 04:20:05;;;;;;;3.03;0.63;;;22.30;53.20;;;;;;4994717;28;20033;-74
2021/05/20 04:22:32;;;;;;;1.10;0.65;;;22.10;51.70;;;;;;5009304;28;20030;-74
2021/05/20 04:25:00;;;;;;;1.27;0.68;;;22.20;53.30;;;;;;4997137;28;20485;-76
2021/05/20 04:27:27;;;;;;;0.95;0.50;;;22.10;49.50;;;;;;5001835;28;20134;-77
2021/05/20 04:29:56;;;;;;;1.10;0.55;;;22.10;47.90;;;;;;4994426;28;20058;-76
2021/05/20 04:32:23;;;;;;;0.82;0.32;;;22.00;48.20;;;;;;5000554;28;20025;-75
2021/05/20 04:34:50;;;;;;;0.55;0.30;;;22.00;48.30;;;;;;4991054;28;20387;-77
2021/05/20 04:37:18;;;;;;;1.88;0.20;;;21.80;48.30;;;;;;4992866;28;20026;-76
2021/05/20 04:39:45;;;;;;;0.55;0.30;;;21.70;43.80;;;;;;4994090;28;20481;-76
2021/05/20 04:42:13;;;;;;;0.88;0.40;;;21.70;45.40;;;;;;4992792;28;20046;-77
2021/05/20 04:44:40;;;;;;;1.23;0.30;;;21.60;45.00;;;;;;4993637;28;20033;-78
2021/05/20 04:47:08;;;;;;;0.93;0.35;;;21.50;43.70;;;;;;4992154;28;20022;-80
2021/05/20 04:49:35;;;;;;;0.82;0.30;;;21.50;43.70;;;;;;4992430;28;20099;-79
2021/05/20 04:52:03;;;;;;;0.85;0.35;;;21.50;44.20;;;;;;4988334;28;20025;-75
2021/05/20 04:54:30;;;;;;;2.10;0.35;;;21.50;45.10;;;;;;4995220;28;20725;-80
2021/05/20 04:56:58;;;;;;;2.50;0.75;;;21.50;45.90;;;;;;4992528;28;20034;-77
2021/05/20 04:59:26;;;;;;;2.28;0.43;;;21.50;46.30;;;;;;4993606;28;20053;-76
2021/05/20 05:01:53;;;;;;;0.82;0.30;;;21.40;43.80;;;;;;5001426;28;20034;-77
2021/05/20 05:04:22;;;;;;;0.88;0.22;;;21.30;45.10;;;;;;4996788;28;20432;-81
2021/05/20 05:06:49;;;;;;;1.65;0.30;;;21.30;44.60;;;;;;5000329;28;20030;-78
2021/05/20 05:09:17;;;;;;;1.63;0.32;;;21.30;45.90;;;;;;4992041;28;20033;-82
2021/05/20 05:11:44;;;;;;;0.70;0.30;;;21.30;46.20;;;;;;5003375;28;20036;-82
2021/05/20 05:14:12;;;;;;;0.82;0.40;;;21.30;45.40;;;;;;4998936;28;20022;-80
2021/05/20 05:16:40;;;;;;;1.17;0.40;;;21.20;45.90;;;;;;4994950;28;20030;-79
2021/05/20 05:19:07;;;;;;;1.08;0.70;;;21.30;45.40;;;;;;4994051;28;20037;-82
2021/05/20 05:21:34;;;;;;;0.93;0.43;;;21.10;46.00;;;;;;5001328;28;20038;-76
2021/05/20 05:24:02;;;;;;;1.13;0.45;;;21.10;47.40;;;;;;4994918;28;20491;-77
2021/05/20 05:26:31;;;;;;;0.68;0.35;;;21.10;47.00;;;;;;4994728;28;20109;-81
2021/05/20 05:28:59;;;;;;;1.88;0.55;;;21.20;47.30;;;;;;4997954;28;20039;-77
2021/05/20 05:31:26;;;;;;;2.17;0.55;;;21.30;46.70;;;;;;4997031;28;20018;-81
2021/05/20 05:33:54;;;;;;;3.88;0.88;;;21.30;47.20;;;;;;4993800;28;20157;-80
2021/05/20 05:36:23;;;;;;;2.13;0.52;;;21.30;47.80;;;;;;4993735;28;20121;-79
2021/05/20 05:38:51;;;;;;;0.80;0.30;;;21.30;46.60;;;;;;4992980;28;20034;-77
2021/05/20 05:41:19;;;;;;;0.82;0.50;;;21.40;45.80;;;;;;4990183;28;20018;-79
2021/05/20 05:43:47;;;;;;;3.08;0.50;;;21.40;46.40;;;;;;4993772;28;20068;-81
2021/05/20 05:46:14;;;;;;;0.73;0.50;;;21.40;47.30;;;;;;4993813;28;20121;-81
2021/05/20 05:48:43;;;;;;;1.77;0.50;;;21.50;47.20;;;;;;4997233;28;20037;-78
2021/05/20 05:51:13;;;;;;;3.22;1.27;;;21.60;47.40;;;;;;4993976;28;20070;-79
2021/05/20 05:53:41;;;;;;;1.73;0.63;;;21.60;46.70;;;;;;5003844;28;20026;-79
2021/05/20 05:56:09;;;;;;;2.20;0.52;;;21.50;46.40;;;;;;4994305;28;20534;-76
2021/05/20 05:58:36;;;;;;;1.15;0.38;;;21.50;47.00;;;;;;4988494;28;20381;-79
2021/05/20 06:01:04;;;;;;;1.10;0.45;;;21.60;46.70;;;;;;4994066;28;20033;-84
2021/05/20 06:03:33;;;;;;;0.65;0.30;;;21.70;48.10;;;;;;5006170;28;20033;-84
2021/05/20 06:06:01;;;;;;;0.77;0.43;;;21.80;46.40;;;;;;4995118;28;20535;-83
2021/05/20 06:08:28;;;;;;;1.50;0.50;;;21.90;46.60;;;;;;5003628;28;20030;-83
2021/05/20 06:10:56;;;;;;;1.00;0.35;;;21.80;47.60;;;;;;4989659;28;20023;-83
2021/05/20 06:13:23;;;;;;;0.68;0.38;;;21.70;48.80;;;;;;4999441;28;20052;-82
2021/05/20 06:15:51;;;;;;;1.20;0.50;;;21.50;48.60;;;;;;5000113;28;20026;-84
2021/05/20 06:18:18;;;;;;;3.10;0.70;;;21.40;49.50;;;;;;5004058;28;20017;-84
2021/05/20 06:20:46;;;;;;;3.83;0.40;;;21.60;51.80;;;;;;4986947;28;20018;-81
2021/05/20 06:23:13;;;;;;;0.68;0.43;;;21.70;49.50;;;;;;4993111;28;20034;-82
2021/05/20 06:25:41;;;;;;;1.45;0.50;;;21.70;50.30;;;;;;4992965;28;20034;-83
2021/05/20 06:28:09;;;;;;;1.90;0.60;;;21.80;52.10;;;;;;4995015;28;20034;-82
2021/05/20 06:30:37;;;;;;;1.05;0.65;;;21.80;51.00;;;;;;4997125;28;20081;-82
2021/05/20 06:33:04;;;;;;;1.50;0.50;;;21.60;52.10;;;;;;4998801;28;20070;-81
2021/05/20 06:35:32;;;;;;;1.73;0.60;;;21.50;51.00;;;;;;5000932;28;20037;-85
2021/05/20 06:37:59;;;;;;;0.85;0.55;;;21.20;51.40;;;;;;4994460;28;20080;-84
2021/05/20 06:40:27;;;;;;;1.02;0.50;;;21.00;53.50;;;;;;4987445;28;20049;-83
2021/05/20 06:42:54;;;;;;;1.30;0.75;;;20.80;55.10;;;;;;5001724;28;20092;-82
2021/05/20 06:45:22;;;;;;;2.50;0.50;;;20.70;54.80;;;;;;4998797;28;20072;-84
2021/05/20 06:47:56;;;;;;;3.38;0.70;;;20.50;54.70;;;;;;4997065;28;20424;-83
2021/05/20 06:50:23;;;;;;;2.25;0.73;;;20.30;54.70;;;;;;4998666;28;20446;-83
2021/05/20 06:52:53;;;;;;;2.30;0.60;;;20.20;57.00;;;;;;5001511;28;20026;-82
2021/05/20 06:55:22;;;;;;;1.90;1.05;;;20.00;58.30;;;;;;4997931;28;20677;-82
2021/05/20 07:00:32;;;;;;;3.00;0.60;;;19.50;57.90;;;;;;4989662;28;20038;-82
2021/05/20 07:02:59;;;;;;;2.60;0.80;;;19.40;56.50;;;;;;5001183;28;20064;-82
2021/05/20 07:05:27;;;;;;;1.65;0.90;;;19.20;57.40;;;;;;4998251;28;20037;-81
2021/05/20 07:08:01;;;;;;;0.90;0.57;;;19.10;58.30;;;;;;4996366;28;20069;-77
2021/05/20 07:10:28;;;;;;;2.72;0.55;;;19.10;59.20;;;;;;4996246;28;20026;-82
2021/05/20 07:12:59;;;;;;;5.38;1.02;;;19.00;59.80;;;;;;4999782;28;20061;-83
2021/05/20 07:15:28;;;;;;;2.75;1.02;;;18.80;61.60;;;;;;4998605;28;20025;-83
2021/05/20 07:17:56;;;;;;;0.77;0.70;;;18.70;61.50;;;;;;4999095;28;20046;-80
2021/05/20 07:20:23;;;;;;;1.33;0.70;;;18.50;62.30;;;;;;4996662;28;20413;-82
2021/05/20 07:22:50;;;;;;;1.33;0.80;;;18.40;63.10;;;;;;5001029;28;20473;-80
2021/05/20 07:25:18;;;;;;;1.30;0.60;;;18.30;62.40;;;;;;4987790;28;20388;-82
2021/05/20 07:27:45;;;;;;;0.98;0.43;;;18.20;62.90;;;;;;5002568;28;20061;-85
2021/05/20 07:30:13;;;;;;;1.13;0.75;;;18.10;63.30;;;;;;5000517;28;20034;-79
2021/05/20 07:32:42;;;;;;;0.73;0.52;;;18.10;62.60;;;;;;5001320;28;20512;-82
2021/05/20 07:35:10;;;;;;;2.47;1.00;;;18.00;64.20;;;;;;4997527;28;20373;-81
2021/05/20 07:37:38;;;;;;;3.72;1.98;;;17.80;64.20;;;;;;4996277;28;20731;-82
2021/05/20 07:40:06;;;;;;;3.00;1.52;;;17.70;64.50;;;;;;4998546;28;20030;-82
2021/05/20 07:42:34;;;;;;;2.08;1.23;;;17.60;62.80;;;;;;4999282;28;20081;-83
2021/05/20 07:45:01;;;;;;;1.73;0.93;;;17.50;62.30;;;;;;4992278;28;20493;-82
2021/05/20 07:47:29;;;;;;;3.17;1.05;;;17.40;63.10;;;;;;5005730;28;20092;-77
2021/05/20 07:49:56;;;;;;;1.83;0.70;;;17.40;63.30;;;;;;4993091;28;20436;-83
2021/05/20 07:52:23;;;;;;;1.65;0.82;;;17.30;63.50;;;;;;4999129;28;20049;-82
2021/05/20 07:54:52;;;;;;;2.50;0.95;;;17.20;61.70;;;;;;4994698;28;20034;-82
2021/05/20 07:57:20;;;;;;;3.17;1.35;;;17.10;63.30;;;;;;4995041;28;20096;-81
2021/05/20 07:59:47;;;;;;;2.50;1.63;;;17.00;61.80;;;;;;4997052;28;20183;-83
2021/05/20 08:05:23;;;;;;;2.15;1.10;;;16.90;59.90;;;;;;4997459;28;20033;-84
2021/05/20 08:07:55;;;;;;;2.05;1.10;;;16.80;59.60;;;;;;4991078;28;20042;-82
2021/05/20 08:10:40;;;;;;;2.38;1.08;;;16.80;60.30;;;;;;4994580;28;20358;-83
2021/05/20 08:13:08;;;;;;;3.78;1.08;;;16.70;59.50;;;;;;4986790;28;20037;-82
2021/05/20 08:15:36;;;;;;;1.95;1.05;;;16.60;58.80;;;;;;4995914;28;20455;-83
2021/05/20 08:18:05;;;;;;;3.28;2.05;;;16.60;59.30;;;;;;4999979;28;20037;-83
2021/05/20 08:20:32;;;;;;;2.90;1.80;;;16.50;59.20;;;;;;4992762;28;20035;-82
2021/05/20 08:22:59;;;;;;;4.82;2.22;;;16.40;60.10;;;;;;4991394;28;20030;-83
2021/05/20 08:25:27;;;;;;;4.90;2.90;;;16.30;59.60;;;;;;4988631;28;20022;-82
2021/05/20 08:27:54;;;;;;;4.38;1.90;;;16.30;60.60;;;;;;4993289;28;22003;-83
2021/05/20 08:30:22;;;;;;;4.07;2.17;;;16.20;60.70;;;;;;4992008;28;20058;-84
2021/05/20 08:32:51;;;;;;;6.80;2.50;;;16.10;61.10;;;;;;4996875;28;20101;-81
2021/05/20 08:35:18;;;;;;;3.40;1.70;;;16.00;61.50;;;;;;4995331;28;20547;-80
2021/05/20 08:37:46;;;;;;;4.93;1.30;;;15.90;63.00;;;;;;4995123;28;20030;-83
2021/05/20 08:40:14;;;;;;;2.75;1.25;;;15.80;64.20;;;;;;4998437;28;20030;-81
2021/05/20 08:42:43;;;;;;;4.20;1.30;;;15.80;64.10;;;;;;4994647;28;20028;-80
2021/05/20 08:45:16;;;;;;;3.85;1.20;;;15.60;64.80;;;;;;4997741;28;20022;-80
2021/05/20 08:47:46;;;;;;;2.50;1.00;;;15.50;65.40;;;;;;4999418;28;20018;-80
2021/05/20 08:50:15;;;;;;;2.45;0.70;;;15.40;65.70;;;;;;4998327;28;20081;-82
2021/05/20 08:52:43;;;;;;;2.78;1.00;;;15.30;65.80;;;;;;4997066;28;20089;-82
2021/05/20 08:55:20;;;;;;;1.52;1.00;;;15.20;66.20;;;;;;5001287;28;20034;-81
2021/05/20 08:57:48;;;;;;;1.02;0.60;;;15.10;65.90;;;;;;4993087;28;20090;-80
2021/05/20 09:00:21;;;;;;;0.80;0.55;;;15.10;65.60;;;;;;4999293;28;20027;-80
2021/05/20 09:02:49;;;;;;;3.85;0.82;;;15.10;64.70;;;;;;5008215;28;20015;-81
2021/05/20 09:05:21;;;;;;;2.28;0.80;;;15.00;65.10;;;;;;4997828;28;21022;-80
2021/05/20 09:08:00;;;;;;;2.28;0.70;;;15.00;65.80;;;;;;4995437;28;20042;-82
2021/05/20 09:10:33;;;;;;;1.23;0.77;;;15.00;66.80;;;;;;4993056;28;20385;-79
2021/05/20 09:13:19;;;;;;;1.77;0.60;;;14.90;66.00;;;;;;4991967;28;20026;-82
2021/05/20 09:15:48;;;;;;;1.40;0.63;;;14.80;65.50;;;;;;4993208;28;20564;-80
2021/05/20 09:18:21;;;;;;;2.53;1.10;;;14.80;64.90;;;;;;5002400;28;20069;-81
2021/05/20 09:20:53;;;;;;;1.60;1.15;;;14.80;65.20;;;;;;5002164;28;20030;-79
2021/05/20 09:23:22;;;;;;;3.42;1.27;;;14.80;65.60;;;;;;4997289;28;20033;-80
2021/05/20 09:25:52;;;;;;;2.53;1.33;;;14.70;65.10;;;;;;4994336;28;20049;-80
2021/05/20 09:28:38;;;;;;;3.15;1.98;;;14.70;64.80;;;;;;4993007;28;20029;-80
2021/05/20 09:31:06;;;;;;;4.95;1.45;;;14.70;64.80;;;;;;4991104;28;20455;-80
2021/05/20 09:33:34;;;;;;;2.13;1.27;;;14.70;65.00;;;;;;4997473;28;20026;-80
2021/05/20 09:36:02;;;;;;;3.00;1.42;;;14.80;64.70;;;;;;4991318;28;20027;-80
2021/05/20 09:38:29;;;;;;;3.17;1.40;;;14.70;65.00;;;;;;4996770;28;20030;-80
2021/05/20 09:41:03;;;;;;;2.33;1.02;;;14.80;65.10;;;;;;4993349;28;20037;-80
2021/05/20 09:43:35;;;;;;;5.60;1.67;;;14.90;65.60;;;;;;5004802;28;20033;-80
2021/05/20 09:46:16;;;;;;;3.20;1.92;;;14.90;65.80;;;;;;4991453;28;20483;-80
2021/05/20 09:48:49;;;;;;;6.43;2.22;;;14.90;66.30;;;;;;4994394;28;20433;-79
2021/05/20 09:51:24;;;;;;;4.30;2.13;;;14.90;66.80;;;;;;4996763;28;20157;-79
2021/05/20 09:53:53;;;;;;;7.05;2.00;;;14.90;67.40;;;;;;4994059;28;20042;-80
2021/05/20 09:56:34;;;;;;;6.30;1.75;;;14.80;67.30;;;;;;4998396;28;20037;-80
2021/05/20 09:59:02;;;;;;;2.60;1.23;;;14.80;67.20;;;;;;4994040;28;20046;-79
2021/05/20 10:01:29;;;;;;;6.10;1.45;;;14.80;66.90;;;;;;4996871;28;20031;-79
2021/05/20 10:03:58;;;;;;;2.05;1.52;;;14.90;66.90;;;;;;4998276;28;20030;-80
2021/05/20 10:06:41;;;;;;;3.45;1.25;;;14.90;66.50;;;;;;4998494;28;20015;-79
2021/05/20 10:09:15;;;;;;;2.95;1.38;;;14.90;65.90;;;;;;4993109;28;20061;-81
2021/05/20 10:11:43;;;;;;;2.90;1.50;;;14.90;66.30;;;;;;4996306;28;20088;-81
2021/05/20 10:14:11;;;;;;;3.25;1.20;;;14.90;67.10;;;;;;4998520;28;20038;-78
2021/05/20 10:16:39;;;;;;;4.22;1.23;;;14.90;67.10;;;;;;4997031;28;20072;-80
2021/05/20 10:19:08;;;;;;;2.28;1.23;;;14.90;66.50;;;;;;5007543;28;20049;-81
2021/05/20 10:21:35;;;;;;;5.10;1.40;;;14.90;66.10;;;;;;4997774;28;20124;-78
2021/05/20 10:24:07;;;;;;;5.18;2.70;;;14.80;67.70;;;;;;4996637;28;20112;-80
2021/05/20 10:26:39;;;;;;;4.47;2.78;;;14.70;70.20;;;;;;4995285;28;20381;-81
2021/05/20 10:29:07;;;;;;;5.43;2.97;;;14.50;71.80;;;;;;4991294;28;20543;-84
2021/05/20 10:31:34;;;;;;;6.00;2.63;;;14.40;72.90;;;;;;4993099;28;20033;-81
2021/05/20 10:34:06;;;;;;;4.32;2.42;;;14.30;73.50;;;;;;5000655;28;20072;-84
2021/05/20 10:36:34;;;;;;;3.72;2.17;;;14.30;76.10;;;;;;4997478;28;20441;-80
2021/05/20 10:39:20;;;;;;;4.97;2.70;;;14.30;75.70;;;;;;4999144;28;20053;-80
2021/05/20 10:41:48;;;;;;;4.88;2.53;;;14.30;76.20;;;;;;4995110;28;20023;-84
2021/05/20 10:44:17;;;;;;;9.15;3.20;;;14.20;75.60;;;;;;4992338;28;20033;-82
2021/05/20 10:47:07;;;;;;;9.05;3.33;;;14.10;74.90;;;;;;4996313;28;20029;-82
2021/05/20 10:49:50;;;;;;;6.72;3.13;;;14.10;75.20;;;;;;5001451;28;20073;-81
2021/05/20 10:52:42;;;;;;;6.65;3.83;;;14.00;76.10;;;;;;4997127;28;20026;-81
2021/05/20 10:55:15;;;;;;;7.20;3.70;;;14.00;77.60;;;;;;4993502;28;20026;-84
2021/05/20 10:58:01;;;;;;;7.65;3.90;;;14.00;78.50;;;;;;4998149;28;20025;-81
2021/05/20 11:00:45;;;;;;;8.35;3.50;;;13.90;79.30;;;;;;4992162;28;20110;-80
2021/05/20 11:03:12;;;;;;;6.55;3.67;;;13.90;79.20;;;;;;4994267;28;20034;-78
2021/05/20 11:05:52;;;;;;;4.78;3.17;;;13.80;80.10;;;;;;4993447;28;20029;-81
2021/05/20 11:08:29;;;;;;;4.47;3.03;;;13.80;80.20;;;;;;4992471;28;20113;-79
2021/05/20 11:10:59;;;;;;;3.65;2.22;;;13.70;80.90;;;;;;4992193;28;20033;-82
2021/05/20 11:13:45;;;;;;;6.03;3.58;;;13.70;81.20;;;;;;4996414;28;20028;-77
2021/05/20 11:16:14;;;;;;;7.38;3.30;;;13.60;81.20;;;;;;4992625;28;20044;-80
2021/05/20 11:18:42;;;;;;;5.60;3.58;;;13.60;81.50;;;;;;4995136;28;20038;-81
2021/05/20 11:21:10;;;;;;;5.90;2.60;;;13.60;82.10;;;;;;4996618;28;20062;-79
2021/05/20 11:23:38;;;;;;;3.90;2.00;;;13.50;81.00;;;;;;5000482;28;20065;-83
2021/05/20 11:26:16;;;;;;;3.22;1.48;;;13.50;80.10;;;;;;4998439;28;20065;-80
2021/05/20 11:28:47;;;;;;;2.70;1.40;;;13.60;79.60;;;;;;4995015;28;20102;-79
2021/05/20 11:31:17;;;;;;;2.53;1.20;;;13.60;79.40;;;;;;4996515;28;20042;-79
2021/05/20 11:33:57;;;;;;;2.05;1.38;;;13.60;79.10;;;;;;4989895;28;20081;-81
2021/05/20 11:36:35;;;;;;;7.35;1.20;;;13.60;79.10;;;;;;4992322;28;20057;-83
2021/05/20 11:39:06;;;;;;;2.67;1.33;;;13.60;79.10;;;;;;4989759;28;20040;-80
2021/05/20 11:41:35;;;;;;;4.60;1.52;;;13.60;79.70;;;;;;4994483;28;20411;-81
2021/05/20 11:44:11;;;;;;;3.40;1.35;;;13.60;79.90;;;;;;4991783;28;20043;-81
2021/05/20 11:46:41;;;;;;;5.50;2.05;;;13.60;80.40;;;;;;4994601;28;20029;-84
2021/05/20 11:49:21;;;;;;;2.45;1.52;;;13.50;80.90;;;;;;4990722;28;20124;-81
2021/05/20 11:51:53;;;;;;;4.05;1.63;;;13.40;82.00;;;;;;4994700;28;20038;-77
2021/05/20 11:54:23;;;;;;;1.67;1.23;;;13.30;82.30;;;;;;4990544;28;20042;-81
2021/05/20 11:56:52;;;;;;;2.05;1.10;;;13.30;82.30;;;;;;5000218;28;20106;-82
2021/05/20 11:59:24;;;;;;;3.35;1.23;;;13.20;82.40;;;;;;5001873;28;20028;-80
2021/05/20 12:01:52;;;;;;;2.50;1.20;;;13.10;82.70;;;;;;5001825;28;20507;-83
2021/05/20 12:04:20;;;;;;;4.57;1.80;;;13.10;82.70;;;;;;4996338;28;20037;-84
2021/05/20 12:06:51;;;;;;;2.83;2.22;;;13.00;82.80;;;;;;4997952;28;20034;-80
2021/05/20 12:09:19;;;;;;;3.22;1.92;;;13.00;83.30;;;;;;5003970;28;20032;-80
2021/05/20 12:11:48;;;;;;;4.22;2.40;;;12.90;83.70;;;;;;4994426;28;20636;-79
2021/05/20 12:14:28;;;;;;;2.67;1.52;;;12.80;84.20;;;;;;4999049;28;20049;-83
2021/05/20 12:17:07;;;;;;;4.28;2.28;;;12.70;85.80;;;;;;5000655;28;20026;-78
2021/05/20 12:19:40;;;;;;;2.53;1.60;;;12.60;86.40;;;;;;5002934;28;20076;-82
2021/05/20 12:22:08;;;;;;;2.38;1.58;;;12.50;86.90;;;;;;5000267;28;20026;-81
2021/05/20 12:24:41;;;;;;;3.30;1.95;;;12.50;87.60;;;;;;5002335;28;20045;-79
2021/05/20 12:27:30;;;;;;;2.88;1.52;;;12.40;88.50;;;;;;4995972;28;20659;-77
2021/05/20 12:30:04;;;;;;;2.50;1.40;;;12.30;89.00;;;;;;5002291;28;20086;-78
2021/05/20 12:32:32;;;;;;;4.05;1.88;;;12.30;89.70;;;;;;4995105;28;20103;-79
2021/05/20 12:35:20;;;;;;;2.00;1.33;;;12.20;90.10;;;;;;5002718;28;20057;-77
2021/05/20 12:38:14;;;;;;;1.33;0.93;;;12.20;90.00;;;;;;4997017;28;20428;-79
2021/05/20 12:40:50;;;;;;;1.75;1.13;;;12.10;89.70;;;;;;5000453;28;20472;-83
2021/05/20 12:43:19;;;;;;;;;;;12.10;90.00;;;;;;4995055;28;20030;-79
2021/05/20 12:45:46;;;;;;;2.85;2.03;;;12.00;90.30;;;;;;4997683;28;19936;-80
2021/05/20 12:48:27;;;;;;;1.95;1.23;;;12.00;90.30;;;;;;4998618;28;20034;-81
2021/05/20 12:50:56;;;;;;;3.17;1.63;;;12.00;90.50;;;;;;5000991;28;20102;-79
2021/05/20 12:53:36;;;;;;;4.40;2.20;;;11.90;90.70;;;;;;4999118;28;20030;-83
2021/05/20 12:56:27;;;;;;;1.52;1.33;;;11.90;90.90;;;;;;4998561;28;20053;-82
2021/05/20 12:59:14;;;;;;;1.67;0.75;;;11.90;90.90;;;;;;4995955;28;20027;-81
2021/05/20 13:01:47;;;;;;;1.10;0.80;;;11.90;90.90;;;;;;4997460;28;20037;-80
2021/05/20 13:04:34;;;;;;;3.15;1.27;;;11.90;90.60;;;;;;4994606;28;20154;-83
2021/05/20 13:07:07;;;;;;;2.05;0.93;;;12.00;90.60;;;;;;4999971;28;20054;-82